CheckWX is a tool to help pilots better visualize weather data.  It is not intended as a substitute for an official pre-flight weather briefing.

06:45:38 UTC

CYPL METAR
Pickle Lake Airport
Pickle Lake, Canada
Current

5 hours ago

CYPL 210200Z 01005KT 15SM FEW060 SCT220 12/M02 A3013 RMK SC1CI2 LAST STFD OBS/NEXT 211100 UTC SLP216
Observed
May-21 @ 02:00 UTC
Wind
  • 010° at 5 KTS
Visibility
15 SM
Flight Rules
VFR
Cloud Levels
  • Few at 6,000' AGL
  • Scattered at 22,000' AGL
Temperature
12°C / 54°F
Dewpoint
-2°C / 28°F
Humidity
38%
Altimeter
30.13" Hg
Pressure
1020.32 hPa
Previous

6 hours ago

CYPL 210100Z 01004KT 330V040 15SM FEW060 SCT220 13/M02 A3011 RMK CU1CI2 SLP211
Observed
May-21 @ 01:00 UTC
Wind
  • 010° at 4 KTS
Visibility
15 SM
Flight Rules
VFR
Cloud Levels
  • Few at 6,000' AGL
  • Scattered at 22,000' AGL
Temperature
13°C / 55°F
Dewpoint
-2°C / 28°F
Humidity
36%
Altimeter
30.11" Hg
Pressure
1019.62 hPa
Previous

7 hours ago

CYPL 210000Z VRB05KT 15SM SCT060 14/M02 A3012 RMK CU4 SLP212 DENSITY ALT 1300FT
Observed
May-21 @ 00:00 UTC
Wind
  • Variable at 5 KTS
Visibility
15 SM
Flight Rules
VFR
Cloud Levels
  • Scattered at 6,000' AGL
Temperature
14°C / 57°F
Dewpoint
-2°C / 28°F
Humidity
33%
Altimeter
30.12" Hg
Pressure
1020.02 hPa